バンダルスリブガワン の空港の天気 - METARとTAF

ブルネイ国際空港 ( WBSB / BWN ) - ブルネイ バンダルスリブガワン
飛行場実況気象(Metar)
観測時間10/16 14:30 BNT (10/16 06:30 UTC)
風向・風速西 2m/s
視程10km以上
天気現象
少しの雲 雲底高度 490m
少しの雲 雲底高度 520m
全天の8割程度の雲 雲底高度 8530m
気温31℃
湿度62%
気圧1009hPa
METARWBSB 160630Z 28003KT 9999 FEW016 FEW017CB BKN280 31/23 Q1009 NOSIG
過去の天気等 Google飛行場航空写真 Wunderground天気予報

過去48時間のMETAR

飛行場予報(TAF)
発表時間: 10/16 13:00 BNT (10/16 05:00 UTC)
予報対象時間: 16日14時 BNT ~ 17日20時 BNT
風向・風速西北西 4m/s
視程10km以上
少しの雲 雲底高度 460m
少しの積乱雲 雲底高度 490m
16日14時 BNT ~ 16日20時 BNT に一時的に
視程6000m
天気現象弱いしゅう雨
全天の4割程度の雲 雲底高度 430m
16日22時 BNT ~ 16日24時 BNT に徐々に
風向・風速南 2m/s
少しの雲 雲底高度 150m
TAF WBSB 160500Z 1606/1712 30008KT 9999 FEW015 FEW016CB
TEMPO 1606/1612 6000 -SHRA SCT014
BECMG 1614/1616 18004KT FEW005